sensor_id;sensor_type;location;lat;lon;timestamp;pressure;altitude;pressure_sealevel;temperature;humidity
29315;BME280;16320;53.954;9.506;2022-12-29T00:00:26;99965.22;;;7.72;100.00
29315;BME280;16320;53.954;9.506;2022-12-29T00:03:31;99959.00;;;7.74;100.00
29315;BME280;16320;53.954;9.506;2022-12-29T00:06:37;99951.91;;;7.76;100.00
29315;BME280;16320;53.954;9.506;2022-12-29T00:09:41;99961.38;;;7.79;100.00
29315;BME280;16320;53.954;9.506;2022-12-29T00:12:45;99962.06;;;7.82;100.00
29315;BME280;16320;53.954;9.506;2022-12-29T00:16:19;99962.88;;;7.83;100.00
29315;BME280;16320;53.954;9.506;2022-12-29T00:19:24;99957.59;;;7.84;100.00
29315;BME280;16320;53.954;9.506;2022-12-29T00:22:46;99945.38;;;7.85;100.00
29315;BME280;16320;53.954;9.506;2022-12-29T00:26:19;99939.38;;;7.83;100.00
29315;BME280;16320;53.954;9.506;2022-12-29T00:29:43;99938.28;;;7.87;100.00
29315;BME280;16320;53.954;9.506;2022-12-29T00:33:15;99939.91;;;7.90;100.00
29315;BME280;16320;53.954;9.506;2022-12-29T00:36:40;99928.59;;;7.89;100.00
29315;BME280;16320;53.954;9.506;2022-12-29T00:39:45;99923.34;;;7.89;100.00
29315;BME280;16320;53.954;9.506;2022-12-29T00:43:08;99928.25;;;7.95;100.00
29315;BME280;16320;53.954;9.506;2022-12-29T00:46:40;99926.56;;;7.94;100.00
29315;BME280;16320;53.954;9.506;2022-12-29T00:49:46;99929.81;;;7.99;100.00
29315;BME280;16320;53.954;9.506;2022-12-29T00:52:51;99921.75;;;8.02;100.00
29315;BME280;16320;53.954;9.506;2022-12-29T00:55:55;99935.78;;;8.01;100.00
29315;BME280;16320;53.954;9.506;2022-12-29T00:59:08;99915.53;;;8.05;100.00
29315;BME280;16320;53.954;9.506;2022-12-29T01:02:12;99912.69;;;8.10;100.00
29315;BME280;16320;53.954;9.506;2022-12-29T01:05:17;99910.16;;;8.08;100.00
29315;BME280;16320;53.954;9.506;2022-12-29T01:08:21;99906.50;;;8.11;100.00
29315;BME280;16320;53.954;9.506;2022-12-29T01:11:25;99903.06;;;8.10;100.00
29315;BME280;16320;53.954;9.506;2022-12-29T01:14:30;99892.59;;;8.10;100.00
29315;BME280;16320;53.954;9.506;2022-12-29T01:17:35;99897.81;;;8.10;100.00
29315;BME280;16320;53.954;9.506;2022-12-29T01:20:39;99887.19;;;8.13;100.00
29315;BME280;16320;53.954;9.506;2022-12-29T01:23:44;99886.38;;;8.13;100.00
29315;BME280;16320;53.954;9.506;2022-12-29T01:26:48;99881.13;;;8.13;100.00
29315;BME280;16320;53.954;9.506;2022-12-29T01:29:53;99873.03;;;8.17;100.00
29315;BME280;16320;53.954;9.506;2022-12-29T01:32:57;99881.81;;;8.16;100.00
29315;BME280;16320;53.954;9.506;2022-12-29T01:36:03;99881.06;;;8.14;100.00
29315;BME280;16320;53.954;9.506;2022-12-29T01:39:08;99867.81;;;8.17;100.00
29315;BME280;16320;53.954;9.506;2022-12-29T01:42:19;99870.22;;;8.20;100.00
29315;BME280;16320;53.954;9.506;2022-12-29T01:45:24;99869.31;;;8.21;100.00
29315;BME280;16320;53.954;9.506;2022-12-29T01:48:28;99855.31;;;8.22;100.00
29315;BME280;16320;53.954;9.506;2022-12-29T01:51:49;99863.16;;;8.22;100.00
29315;BME280;16320;53.954;9.506;2022-12-29T01:54:55;99855.22;;;8.24;100.00
29315;BME280;16320;53.954;9.506;2022-12-29T01:58:04;99853.09;;;8.31;100.00
29315;BME280;16320;53.954;9.506;2022-12-29T02:01:09;99850.56;;;8.29;100.00
29315;BME280;16320;53.954;9.506;2022-12-29T02:04:14;99847.00;;;8.30;100.00
29315;BME280;16320;53.954;9.506;2022-12-29T02:07:23;99837.31;;;8.32;100.00
29315;BME280;16320;53.954;9.506;2022-12-29T02:10:32;99845.00;;;8.35;100.00
29315;BME280;16320;53.954;9.506;2022-12-29T02:13:37;99839.69;;;8.37;100.00
29315;BME280;16320;53.954;9.506;2022-12-29T02:24:05;99830.97;;;8.36;100.00
29315;BME280;16320;53.954;9.506;2022-12-29T02:27:35;99828.09;;;8.41;100.00
29315;BME280;16320;53.954;9.506;2022-12-29T02:31:11;99817.63;;;8.41;100.00
29315;BME280;16320;53.954;9.506;2022-12-29T02:35:01;99831.50;;;8.43;100.00
29315;BME280;16320;53.954;9.506;2022-12-29T02:38:37;99829.78;;;8.42;100.00
29315;BME280;16320;53.954;9.506;2022-12-29T02:42:16;99815.78;;;8.43;100.00
29315;BME280;16320;53.954;9.506;2022-12-29T02:45:58;99821.03;;;8.43;100.00
29315;BME280;16320;53.954;9.506;2022-12-29T02:49:38;99803.47;;;8.45;100.00
29315;BME280;16320;53.954;9.506;2022-12-29T02:52:52;99802.44;;;8.48;100.00
29315;BME280;16320;53.954;9.506;2022-12-29T02:55:59;99796.22;;;8.50;100.00
29315;BME280;16320;53.954;9.506;2022-12-29T02:59:04;99797.03;;;8.51;100.00
29315;BME280;16320;53.954;9.506;2022-12-29T03:09:17;99795.84;;;8.56;100.00
29315;BME280;16320;53.954;9.506;2022-12-29T03:12:46;99797.34;;;8.60;100.00
29315;BME280;16320;53.954;9.506;2022-12-29T03:19:41;99800.72;;;8.63;100.00
29315;BME280;16320;53.954;9.506;2022-12-29T03:22:51;99785.00;;;8.63;100.00
29315;BME280;16320;53.954;9.506;2022-12-29T03:26:01;99789.72;;;8.72;100.00
29315;BME280;16320;53.954;9.506;2022-12-29T03:29:08;99782.78;;;8.71;100.00
29315;BME280;16320;53.954;9.506;2022-12-29T03:32:15;99780.94;;;8.73;100.00
29315;BME280;16320;53.954;9.506;2022-12-29T03:35:24;99779.97;;;8.74;100.00
29315;BME280;16320;53.954;9.506;2022-12-29T03:39:02;99773.91;;;8.73;100.00
29315;BME280;16320;53.954;9.506;2022-12-29T03:42:15;99766.88;;;8.74;100.00
29315;BME280;16320;53.954;9.506;2022-12-29T03:45:22;99756.25;;;8.77;100.00
29315;BME280;16320;53.954;9.506;2022-12-29T03:48:27;99751.97;;;8.76;100.00
29315;BME280;16320;53.954;9.506;2022-12-29T03:51:32;99759.03;;;8.74;100.00
29315;BME280;16320;53.954;9.506;2022-12-29T03:54:37;99754.56;;;8.76;100.00
29315;BME280;16320;53.954;9.506;2022-12-29T03:57:42;99749.16;;;8.79;100.00
29315;BME280;16320;53.954;9.506;2022-12-29T04:00:46;99739.59;;;8.78;100.00
29315;BME280;16320;53.954;9.506;2022-12-29T04:03:50;99742.41;;;8.75;100.00
29315;BME280;16320;53.954;9.506;2022-12-29T04:06:55;99732.41;;;8.82;100.00
29315;BME280;16320;53.954;9.506;2022-12-29T04:09:59;99731.22;;;8.87;100.00
29315;BME280;16320;53.954;9.506;2022-12-29T04:13:03;99712.03;;;8.87;100.00
29315;BME280;16320;53.954;9.506;2022-12-29T04:16:08;99724.66;;;8.94;100.00
29315;BME280;16320;53.954;9.506;2022-12-29T04:19:13;99714.72;;;9.00;100.00
29315;BME280;16320;53.954;9.506;2022-12-29T04:22:18;99706.97;;;8.98;100.00
29315;BME280;16320;53.954;9.506;2022-12-29T04:25:26;99700.53;;;9.04;100.00
29315;BME280;16320;53.954;9.506;2022-12-29T04:28:31;99680.31;;;9.06;100.00
29315;BME280;16320;53.954;9.506;2022-12-29T04:31:36;99682.75;;;9.09;100.00
29315;BME280;16320;53.954;9.506;2022-12-29T04:34:40;99666.47;;;9.04;100.00
29315;BME280;16320;53.954;9.506;2022-12-29T04:37:44;99658.25;;;9.10;100.00
29315;BME280;16320;53.954;9.506;2022-12-29T04:40:50;99645.88;;;9.12;100.00
29315;BME280;16320;53.954;9.506;2022-12-29T04:43:55;99634.44;;;9.13;100.00
29315;BME280;16320;53.954;9.506;2022-12-29T04:46:59;99619.59;;;9.13;100.00
29315;BME280;16320;53.954;9.506;2022-12-29T04:50:04;99602.09;;;9.14;100.00
29315;BME280;16320;53.954;9.506;2022-12-29T04:53:09;99594.50;;;9.09;100.00
29315;BME280;16320;53.954;9.506;2022-12-29T04:56:13;99575.88;;;9.14;100.00
29315;BME280;16320;53.954;9.506;2022-12-29T04:59:17;99586.75;;;9.08;100.00
29315;BME280;16320;53.954;9.506;2022-12-29T05:02:22;99565.59;;;9.11;100.00
29315;BME280;16320;53.954;9.506;2022-12-29T05:05:27;99562.25;;;9.09;100.00
29315;BME280;16320;53.954;9.506;2022-12-29T05:08:32;99547.47;;;9.08;100.00
29315;BME280;16320;53.954;9.506;2022-12-29T05:11:36;99551.59;;;9.12;100.00
29315;BME280;16320;53.954;9.506;2022-12-29T05:14:41;99537.94;;;9.07;100.00
29315;BME280;16320;53.954;9.506;2022-12-29T05:17:46;99548.44;;;9.07;100.00
29315;BME280;16320;53.954;9.506;2022-12-29T05:20:51;99548.44;;;9.07;100.00
29315;BME280;16320;53.954;9.506;2022-12-29T05:23:55;99546.72;;;9.06;100.00
29315;BME280;16320;53.954;9.506;2022-12-29T05:27:01;99539.59;;;9.08;100.00
29315;BME280;16320;53.954;9.506;2022-12-29T05:30:06;99557.00;;;9.09;100.00
29315;BME280;16320;53.954;9.506;2022-12-29T05:33:10;99562.44;;;9.06;100.00
29315;BME280;16320;53.954;9.506;2022-12-29T05:36:15;99564.53;;;9.01;100.00
29315;BME280;16320;53.954;9.506;2022-12-29T05:39:22;99569.75;;;9.01;100.00
29315;BME280;16320;53.954;9.506;2022-12-29T05:42:26;99578.53;;;9.00;100.00
29315;BME280;16320;53.954;9.506;2022-12-29T05:45:31;99581.25;;;8.98;100.00
29315;BME280;16320;53.954;9.506;2022-12-29T05:48:35;99586.50;;;8.98;100.00
29315;BME280;16320;53.954;9.506;2022-12-29T05:51:41;99583.97;;;8.96;100.00
29315;BME280;16320;53.954;9.506;2022-12-29T05:54:45;99587.56;;;8.95;100.00
29315;BME280;16320;53.954;9.506;2022-12-29T05:57:50;99594.63;;;8.93;100.00
29315;BME280;16320;53.954;9.506;2022-12-29T06:00:54;99594.44;;;8.96;100.00
29315;BME280;16320;53.954;9.506;2022-12-29T06:03:58;99595.22;;;8.98;100.00
29315;BME280;16320;53.954;9.506;2022-12-29T06:07:06;99601.47;;;8.96;100.00
29315;BME280;16320;53.954;9.506;2022-12-29T06:10:10;99593.53;;;8.97;100.00
29315;BME280;16320;53.954;9.506;2022-12-29T06:13:16;99588.84;;;9.03;100.00
29315;BME280;16320;53.954;9.506;2022-12-29T06:16:21;99603.91;;;8.99;100.00
29315;BME280;16320;53.954;9.506;2022-12-29T06:19:26;99603.81;;;9.01;100.00
29315;BME280;16320;53.954;9.506;2022-12-29T06:22:30;99611.47;;;9.04;100.00
29315;BME280;16320;53.954;9.506;2022-12-29T06:25:35;99615.75;;;9.05;100.00
29315;BME280;16320;53.954;9.506;2022-12-29T06:28:40;99608.56;;;9.08;100.00
29315;BME280;16320;53.954;9.506;2022-12-29T06:31:44;99609.59;;;9.06;100.00
29315;BME280;16320;53.954;9.506;2022-12-29T06:34:53;99604.34;;;9.06;100.00
29315;BME280;16320;53.954;9.506;2022-12-29T06:37:57;99600.22;;;9.02;100.00
29315;BME280;16320;53.954;9.506;2022-12-29T06:41:02;99598.56;;;9.01;100.00
29315;BME280;16320;53.954;9.506;2022-12-29T06:44:06;99599.50;;;9.00;100.00
29315;BME280;16320;53.954;9.506;2022-12-29T06:47:11;99587.38;;;8.98;100.00
29315;BME280;16320;53.954;9.506;2022-12-29T06:50:15;99579.59;;;8.97;100.00
29315;BME280;16320;53.954;9.506;2022-12-29T06:53:21;99575.75;;;8.88;100.00
29315;BME280;16320;53.954;9.506;2022-12-29T06:56:25;99577.66;;;8.86;100.00
29315;BME280;16320;53.954;9.506;2022-12-29T06:59:29;99570.06;;;8.82;100.00
29315;BME280;16320;53.954;9.506;2022-12-29T07:02:33;99565.66;;;8.82;100.00
29315;BME280;16320;53.954;9.506;2022-12-29T07:05:38;99564.00;;;8.81;100.00
29315;BME280;16320;53.954;9.506;2022-12-29T07:08:42;99558.59;;;8.70;100.00
29315;BME280;16320;53.954;9.506;2022-12-29T07:11:49;99561.97;;;8.72;100.00
29315;BME280;16320;53.954;9.506;2022-12-29T07:14:53;99556.19;;;8.67;100.00
29315;BME280;16320;53.954;9.506;2022-12-29T07:17:57;99563.47;;;8.61;100.00
29315;BME280;16320;53.954;9.506;2022-12-29T07:21:02;99566.75;;;8.65;100.00
29315;BME280;16320;53.954;9.506;2022-12-29T07:24:07;99552.22;;;8.74;100.00
29315;BME280;16320;53.954;9.506;2022-12-29T07:27:13;99551.50;;;8.72;100.00
29315;BME280;16320;53.954;9.506;2022-12-29T07:30:18;99553.75;;;8.64;100.00
29315;BME280;16320;53.954;9.506;2022-12-29T07:33:22;99555.81;;;8.73;100.00
29315;BME280;16320;53.954;9.506;2022-12-29T07:36:27;99554.66;;;8.77;100.00
29315;BME280;16320;53.954;9.506;2022-12-29T07:39:37;99556.16;;;8.81;100.00
29315;BME280;16320;53.954;9.506;2022-12-29T07:42:42;99556.25;;;8.79;100.00
29315;BME280;16320;53.954;9.506;2022-12-29T07:45:48;99565.47;;;8.85;100.00
29315;BME280;16320;53.954;9.506;2022-12-29T07:48:52;99564.75;;;8.83;100.00
29315;BME280;16320;53.954;9.506;2022-12-29T07:51:56;99545.78;;;8.79;100.00
29315;BME280;16320;53.954;9.506;2022-12-29T07:55:01;99550.81;;;8.83;100.00
29315;BME280;16320;53.954;9.506;2022-12-29T07:58:06;99551.66;;;8.83;100.00
29315;BME280;16320;53.954;9.506;2022-12-29T08:01:10;99555.88;;;8.86;100.00
29315;BME280;16320;53.954;9.506;2022-12-29T08:04:15;99552.38;;;8.85;100.00
29315;BME280;16320;53.954;9.506;2022-12-29T08:07:20;99554.09;;;8.86;100.00
29315;BME280;16320;53.954;9.506;2022-12-29T08:10:25;99557.34;;;8.90;100.00
29315;BME280;16320;53.954;9.506;2022-12-29T08:13:30;99563.44;;;8.90;100.00
29315;BME280;16320;53.954;9.506;2022-12-29T08:16:34;99564.16;;;8.92;100.00
29315;BME280;16320;53.954;9.506;2022-12-29T08:19:39;99563.44;;;8.90;100.00
29315;BME280;16320;53.954;9.506;2022-12-29T08:22:43;99568.44;;;8.93;100.00
29315;BME280;16320;53.954;9.506;2022-12-29T08:26:00;99575.75;;;8.88;100.00
29315;BME280;16320;53.954;9.506;2022-12-29T08:29:05;99571.28;;;8.90;100.00
29315;BME280;16320;53.954;9.506;2022-12-29T08:32:10;99575.38;;;8.94;100.00
29315;BME280;16320;53.954;9.506;2022-12-29T08:35:14;99566.59;;;8.95;100.00
29315;BME280;16320;53.954;9.506;2022-12-29T08:38:20;99571.28;;;8.90;100.00
29315;BME280;16320;53.954;9.506;2022-12-29T08:41:24;99563.63;;;8.87;100.00
29315;BME280;16320;53.954;9.506;2022-12-29T08:44:28;99563.31;;;8.92;100.00
29315;BME280;16320;53.954;9.506;2022-12-29T08:47:32;99562.19;;;8.96;100.00
29315;BME280;16320;53.954;9.506;2022-12-29T08:50:37;99572.94;;;9.06;100.00
29315;BME280;16320;53.954;9.506;2022-12-29T08:53:41;99582.56;;;9.05;100.00
29315;BME280;16320;53.954;9.506;2022-12-29T08:56:46;99575.72;;;9.03;100.00
29315;BME280;16320;53.954;9.506;2022-12-29T08:59:50;99570.16;;;8.94;100.00
29315;BME280;16320;53.954;9.506;2022-12-29T09:02:54;99571.84;;;8.95;100.00
29315;BME280;16320;53.954;9.506;2022-12-29T09:05:59;99561.81;;;9.02;100.00
29315;BME280;16320;53.954;9.506;2022-12-29T09:09:09;99547.03;;;9.01;100.00
29315;BME280;16320;53.954;9.506;2022-12-29T09:12:17;99549.75;;;9.00;100.00
29315;BME280;16320;53.954;9.506;2022-12-29T09:15:23;99555.16;;;8.96;100.00
29315;BME280;16320;53.954;9.506;2022-12-29T09:18:27;99555.16;;;8.96;100.00
29315;BME280;16320;53.954;9.506;2022-12-29T09:21:32;99563.13;;;8.95;100.00
29315;BME280;16320;53.954;9.506;2022-12-29T09:24:37;99564.47;;;8.88;100.00
29315;BME280;16320;53.954;9.506;2022-12-29T09:27:41;99558.94;;;8.92;100.00
29315;BME280;16320;53.954;9.506;2022-12-29T09:30:48;99560.56;;;8.81;100.00
29315;BME280;16320;53.954;9.506;2022-12-29T09:33:52;99584.75;;;8.84;100.00
29315;BME280;16320;53.954;9.506;2022-12-29T09:36:57;99584.75;;;8.84;100.00
29315;BME280;16320;53.954;9.506;2022-12-29T09:40:01;99572.03;;;8.92;100.00
29315;BME280;16320;53.954;9.506;2022-12-29T09:47:11;99577.47;;;8.89;100.00
29315;BME280;16320;53.954;9.506;2022-12-29T09:50:39;99587.38;;;8.98;100.00
29315;BME280;16320;53.954;9.506;2022-12-29T09:53:57;99577.44;;;9.04;100.00
29315;BME280;16320;53.954;9.506;2022-12-29T09:57:03;99575.25;;;9.10;100.00
29315;BME280;16320;53.954;9.506;2022-12-29T10:00:22;99565.41;;;9.14;100.00
29315;BME280;16320;53.954;9.506;2022-12-29T10:07:20;99563.72;;;9.13;100.00
29315;BME280;16320;53.954;9.506;2022-12-29T10:10:57;99569.53;;;9.18;100.00
29315;BME280;16320;53.954;9.506;2022-12-29T10:14:40;99563.97;;;9.23;100.00
29315;BME280;16320;53.954;9.506;2022-12-29T10:21:49;99556.25;;;9.21;100.00
29315;BME280;16320;53.954;9.506;2022-12-29T10:25:25;99569.34;;;9.21;100.00
29315;BME280;16320;53.954;9.506;2022-12-29T10:28:48;99557.06;;;9.22;100.00
29315;BME280;16320;53.954;9.506;2022-12-29T10:32:05;99563.53;;;9.16;100.00
29315;BME280;16320;53.954;9.506;2022-12-29T10:35:26;99567.84;;;9.17;100.00
29315;BME280;16320;53.954;9.506;2022-12-29T10:38:42;99561.88;;;9.15;100.00
29315;BME280;16320;53.954;9.506;2022-12-29T10:45:15;99569.28;;;9.08;100.00
29315;BME280;16320;53.954;9.506;2022-12-29T10:48:28;99565.50;;;9.12;100.00
29315;BME280;16320;53.954;9.506;2022-12-29T10:51:39;99565.59;;;9.11;100.00
29315;BME280;16320;53.954;9.506;2022-12-29T10:55:00;99562.25;;;9.09;100.00
29315;BME280;16320;53.954;9.506;2022-12-29T10:58:07;99575.00;;;9.01;100.00
29315;BME280;16320;53.954;9.506;2022-12-29T11:01:18;99568.06;;;9.00;100.00
29315;BME280;16320;53.954;9.506;2022-12-29T11:08:04;99566.84;;;9.05;100.00
29315;BME280;16320;53.954;9.506;2022-12-29T11:11:34;99559.84;;;9.06;100.00
29315;BME280;16320;53.954;9.506;2022-12-29T11:14:39;99564.13;;;9.07;100.00
29315;BME280;16320;53.954;9.506;2022-12-29T11:18:00;99554.50;;;9.07;100.00
29315;BME280;16320;53.954;9.506;2022-12-29T11:24:44;99565.06;;;9.06;100.00
29315;BME280;16320;53.954;9.506;2022-12-29T11:28:15;99559.63;;;9.09;100.00
29315;BME280;16320;53.954;9.506;2022-12-29T11:31:22;99564.78;;;9.10;100.00
29315;BME280;16320;53.954;9.506;2022-12-29T11:34:35;99560.19;;;9.14;100.00
29315;BME280;16320;53.954;9.506;2022-12-29T11:37:42;99557.00;;;9.09;100.00
29315;BME280;16320;53.954;9.506;2022-12-29T11:40:49;99563.19;;;9.08;100.00
29315;BME280;16320;53.954;9.506;2022-12-29T11:43:58;99571.22;;;9.05;100.00
29315;BME280;16320;53.954;9.506;2022-12-29T11:47:11;99563.88;;;8.97;100.00
29315;BME280;16320;53.954;9.506;2022-12-29T11:50:24;99575.94;;;9.00;100.00
29315;BME280;16320;53.954;9.506;2022-12-29T11:53:44;99562.75;;;8.87;100.00
29315;BME280;16320;53.954;9.506;2022-12-29T11:56:51;99572.41;;;8.86;100.00
29315;BME280;16320;53.954;9.506;2022-12-29T11:59:56;99571.28;;;8.90;100.00
29315;BME280;16320;53.954;9.506;2022-12-29T12:03:17;99566.06;;;8.90;100.00
29315;BME280;16320;53.954;9.506;2022-12-29T12:06:24;99561.38;;;8.95;100.00
29315;BME280;16320;53.954;9.506;2022-12-29T12:09:53;99555.94;;;8.98;100.00
29315;BME280;16320;53.954;9.506;2022-12-29T12:17:19;99554.25;;;8.97;100.00
29315;BME280;16320;53.954;9.506;2022-12-29T12:20:54;99561.16;;;8.98;100.00
29315;BME280;16320;53.954;9.506;2022-12-29T12:24:29;99560.81;;;8.90;100.00
29315;BME280;16320;53.954;9.506;2022-12-29T12:27:52;99569.78;;;8.86;100.00
29315;BME280;16320;53.954;9.506;2022-12-29T12:31:02;99579.72;;;8.81;100.00
29315;BME280;16320;53.954;9.506;2022-12-29T12:34:37;99599.16;;;8.63;100.00
29315;BME280;16320;53.954;9.506;2022-12-29T12:41:52;99628.16;;;8.59;100.00
29315;BME280;16320;53.954;9.506;2022-12-29T13:00:07;99663.66;;;8.49;100.00
29315;BME280;16320;53.954;9.506;2022-12-29T13:14:02;99721.59;;;8.43;100.00
29315;BME280;16320;53.954;9.506;2022-12-29T13:20:40;99804.47;;;8.27;100.00
29315;BME280;16320;53.954;9.506;2022-12-29T13:24:10;99797.44;;;7.97;100.00
29315;BME280;16320;53.954;9.506;2022-12-29T13:35:13;99832.59;;;7.91;100.00
29315;BME280;16320;53.954;9.506;2022-12-29T13:38:34;99845.34;;;7.81;100.00
29315;BME280;16320;53.954;9.506;2022-12-29T13:41:54;99854.88;;;7.82;100.00
29315;BME280;16320;53.954;9.506;2022-12-29T13:45:06;99861.69;;;7.69;100.00
29315;BME280;16320;53.954;9.506;2022-12-29T13:48:19;99874.16;;;7.64;100.00
29315;BME280;16320;53.954;9.506;2022-12-29T13:51:26;99868.16;;;7.62;100.00
29315;BME280;16320;53.954;9.506;2022-12-29T13:58:34;99877.84;;;7.60;100.00
29315;BME280;16320;53.954;9.506;2022-12-29T14:01:41;99888.97;;;7.63;100.00
29315;BME280;16320;53.954;9.506;2022-12-29T14:05:05;99888.16;;;7.63;100.00
29315;BME280;16320;53.954;9.506;2022-12-29T14:08:26;99899.28;;;7.66;100.00
29315;BME280;16320;53.954;9.506;2022-12-29T14:11:39;99895.06;;;7.64;100.00
29315;BME280;16320;53.954;9.506;2022-12-29T14:14:43;99915.75;;;7.68;100.00
29315;BME280;16320;53.954;9.506;2022-12-29T14:18:24;99906.88;;;7.71;100.00
29315;BME280;16320;53.954;9.506;2022-12-29T14:21:29;99908.91;;;7.66;100.00
29315;BME280;16320;53.954;9.506;2022-12-29T14:27:52;99915.97;;;7.64;100.00
29315;BME280;16320;53.954;9.506;2022-12-29T14:31:50;99908.75;;;7.69;100.00
29315;BME280;16320;53.954;9.506;2022-12-29T14:34:38;99914.72;;;7.71;100.00
29315;BME280;16320;53.954;9.506;2022-12-29T14:37:42;99915.63;;;7.70;100.00
29315;BME280;16320;53.954;9.506;2022-12-29T14:40:48;99906.88;;;7.71;100.00
29315;BME280;16320;53.954;9.506;2022-12-29T14:44:25;99892.13;;;7.70;100.00
29315;BME280;16320;53.954;9.506;2022-12-29T14:47:31;99892.91;;;7.72;100.00
29315;BME280;16320;53.954;9.506;2022-12-29T14:50:42;99893.91;;;7.69;100.00
29315;BME280;16320;53.954;9.506;2022-12-29T14:53:50;99888.06;;;7.64;100.00
29315;BME280;16320;53.954;9.506;2022-12-29T14:56:59;99896.31;;;7.57;100.00
29315;BME280;16320;53.954;9.506;2022-12-29T15:00:38;99905.00;;;7.57;100.00
29315;BME280;16320;53.954;9.506;2022-12-29T15:03:48;99900.34;;;7.46;100.00
29315;BME280;16320;53.954;9.506;2022-12-29T15:06:56;99896.34;;;7.39;100.00
29315;BME280;16320;53.954;9.506;2022-12-29T15:10:08;99903.50;;;7.36;100.00
29315;BME280;16320;53.954;9.506;2022-12-29T15:13:24;99905.41;;;7.32;100.00
29315;BME280;16320;53.954;9.506;2022-12-29T15:16:32;99908.25;;;7.27;100.00
29315;BME280;16320;53.954;9.506;2022-12-29T15:19:38;99913.50;;;7.27;100.00
29315;BME280;16320;53.954;9.506;2022-12-29T15:22:56;99929.16;;;7.10;100.00
29315;BME280;16320;53.954;9.506;2022-12-29T15:26:05;99927.78;;;7.20;100.00
29315;BME280;16320;53.954;9.506;2022-12-29T15:29:40;99938.84;;;7.08;100.00
29315;BME280;16320;53.954;9.506;2022-12-29T15:32:47;99939.38;;;7.14;100.00
29315;BME280;16320;53.954;9.506;2022-12-29T15:35:54;99941.22;;;7.12;100.00
29315;BME280;16320;53.954;9.506;2022-12-29T15:38:58;99944.94;;;7.08;100.00
29315;BME280;16320;53.954;9.506;2022-12-29T15:45:33;99961.03;;;6.99;100.00
29315;BME280;16320;53.954;9.506;2022-12-29T15:48:38;99957.97;;;6.91;100.00
29315;BME280;16320;53.954;9.506;2022-12-29T15:51:43;99963.47;;;6.85;100.00
29315;BME280;16320;53.954;9.506;2022-12-29T15:54:52;99965.31;;;6.83;100.00
29315;BME280;16320;53.954;9.506;2022-12-29T15:58:02;99972.22;;;6.84;100.00
29315;BME280;16320;53.954;9.506;2022-12-29T16:01:29;99975.75;;;6.83;100.00
29315;BME280;16320;53.954;9.506;2022-12-29T16:04:34;99972.22;;;6.84;100.00
29315;BME280;16320;53.954;9.506;2022-12-29T16:08:00;99972.06;;;6.87;100.00
29315;BME280;16320;53.954;9.506;2022-12-29T16:11:31;99977.13;;;6.90;100.00
29315;BME280;16320;53.954;9.506;2022-12-29T16:14:58;99984.22;;;6.88;100.00
29315;BME280;16320;53.954;9.506;2022-12-29T16:18:04;99977.13;;;6.90;100.00
29315;BME280;16320;53.954;9.506;2022-12-29T16:21:22;99976.91;;;6.94;100.00
29315;BME280;16320;53.954;9.506;2022-12-29T16:24:31;99983.38;;;6.87;100.00
29315;BME280;16320;53.954;9.506;2022-12-29T16:27:41;99974.47;;;6.91;100.00
29315;BME280;16320;53.954;9.506;2022-12-29T16:30:46;99985.72;;;6.92;100.00
29315;BME280;16320;53.954;9.506;2022-12-29T16:33:54;99989.44;;;6.88;100.00
29315;BME280;16320;53.954;9.506;2022-12-29T16:40:28;99989.44;;;6.88;100.00
29315;BME280;16320;53.954;9.506;2022-12-29T16:43:36;99991.56;;;6.80;100.00
29315;BME280;16320;53.954;9.506;2022-12-29T16:50:19;99993.22;;;6.81;100.00
29315;BME280;16320;53.954;9.506;2022-12-29T16:53:38;99991.69;;;6.76;100.00
29315;BME280;16320;53.954;9.506;2022-12-29T16:56:45;100009.22;;;6.74;100.00
29315;BME280;16320;53.954;9.506;2022-12-29T16:59:53;100014.66;;;6.70;100.00
29315;BME280;16320;53.954;9.506;2022-12-29T17:03:00;100016.31;;;6.71;100.00
29315;BME280;16320;53.954;9.506;2022-12-29T17:06:16;100022.47;;;6.70;100.00
29315;BME280;16320;53.954;9.506;2022-12-29T17:09:22;100013.78;;;6.69;100.00
29315;BME280;16320;53.954;9.506;2022-12-29T17:12:29;100023.31;;;6.70;100.00
29315;BME280;16320;53.954;9.506;2022-12-29T17:15:33;100023.22;;;6.72;100.00
29315;BME280;16320;53.954;9.506;2022-12-29T17:18:39;100023.31;;;6.70;100.00
29315;BME280;16320;53.954;9.506;2022-12-29T17:21:43;100021.47;;;6.72;100.00
29315;BME280;16320;53.954;9.506;2022-12-29T17:24:48;100023.16;;;6.73;100.00
29315;BME280;16320;53.954;9.506;2022-12-29T17:28:03;100029.78;;;6.81;100.00
29315;BME280;16320;53.954;9.506;2022-12-29T17:31:08;100033.19;;;6.83;100.00
29315;BME280;16320;53.954;9.506;2022-12-29T17:34:14;100040.63;;;6.90;100.00
29315;BME280;16320;53.954;9.506;2022-12-29T17:37:33;100046.56;;;6.94;100.00
29315;BME280;16320;53.954;9.506;2022-12-29T17:40:38;100050.78;;;6.96;100.00
29315;BME280;16320;53.954;9.506;2022-12-29T17:43:42;100051.34;;;7.03;100.00
29315;BME280;16320;53.954;9.506;2022-12-29T17:46:47;100059.97;;;7.05;100.00
29315;BME280;16320;53.954;9.506;2022-12-29T17:49:52;100059.81;;;7.08;100.00
29315;BME280;16320;53.954;9.506;2022-12-29T17:53:04;100063.47;;;7.04;100.00
29315;BME280;16320;53.954;9.506;2022-12-29T17:56:17;100061.50;;;7.09;100.00
29315;BME280;16320;53.954;9.506;2022-12-29T17:59:22;100056.41;;;7.06;100.00
29315;BME280;16320;53.954;9.506;2022-12-29T18:02:29;100062.25;;;7.11;100.00
29315;BME280;16320;53.954;9.506;2022-12-29T18:05:34;100056.97;;;7.13;100.00
29315;BME280;16320;53.954;9.506;2022-12-29T18:08:39;100049.19;;;7.11;100.00
29315;BME280;16320;53.954;9.506;2022-12-29T18:11:44;100058.88;;;7.09;100.00
29315;BME280;16320;53.954;9.506;2022-12-29T18:14:49;100060.31;;;7.17;100.00
29315;BME280;16320;53.954;9.506;2022-12-29T18:18:14;100062.91;;;7.17;100.00
29315;BME280;16320;53.954;9.506;2022-12-29T18:21:21;100063.69;;;7.19;100.00
29315;BME280;16320;53.954;9.506;2022-12-29T18:24:26;100061.91;;;7.19;100.00
29315;BME280;16320;53.954;9.506;2022-12-29T18:27:31;100054.91;;;7.20;100.00
29315;BME280;16320;53.954;9.506;2022-12-29T18:30:36;100053.16;;;7.20;100.00